sensor_id;sensor_type;location;lat;lon;timestamp;temperature;humidity
47779;DHT22;33538;48.432;11.350;2023-06-10T00:01:32;19.90;70.00
47779;DHT22;33538;48.432;11.350;2023-06-10T00:04:00;20.00;70.00
47779;DHT22;33538;48.432;11.350;2023-06-10T00:06:27;19.90;69.40
47779;DHT22;33538;48.432;11.350;2023-06-10T00:08:54;20.00;69.80
47779;DHT22;33538;48.432;11.350;2023-06-10T00:14:49;19.90;69.80
47779;DHT22;33538;48.432;11.350;2023-06-10T00:17:16;19.80;70.20
47779;DHT22;33538;48.432;11.350;2023-06-10T00:19:44;19.90;69.90
47779;DHT22;33538;48.432;11.350;2023-06-10T00:22:11;19.80;70.00
47779;DHT22;33538;48.432;11.350;2023-06-10T00:24:37;19.80;70.10
47779;DHT22;33538;48.432;11.350;2023-06-10T00:27:05;19.90;70.00
47779;DHT22;33538;48.432;11.350;2023-06-10T00:29:32;19.90;69.80
47779;DHT22;33538;48.432;11.350;2023-06-10T00:31:59;19.90;70.00
47779;DHT22;33538;48.432;11.350;2023-06-10T00:34:26;19.90;70.00
47779;DHT22;33538;48.432;11.350;2023-06-10T00:36:54;19.90;69.60
47779;DHT22;33538;48.432;11.350;2023-06-10T00:39:21;19.70;70.80
47779;DHT22;33538;48.432;11.350;2023-06-10T00:41:47;19.70;70.70
47779;DHT22;33538;48.432;11.350;2023-06-10T00:44:15;19.60;70.80
47779;DHT22;33538;48.432;11.350;2023-06-10T00:46:42;19.60;70.50
47779;DHT22;33538;48.432;11.350;2023-06-10T00:49:09;19.60;71.00
47779;DHT22;33538;48.432;11.350;2023-06-10T00:51:36;19.60;71.10
47779;DHT22;33538;48.432;11.350;2023-06-10T00:54:05;19.60;71.60
47779;DHT22;33538;48.432;11.350;2023-06-10T00:56:33;19.50;71.10
47779;DHT22;33538;48.432;11.350;2023-06-10T00:59:00;19.60;70.90
47779;DHT22;33538;48.432;11.350;2023-06-10T01:01:27;19.50;71.40
47779;DHT22;33538;48.432;11.350;2023-06-10T01:03:54;19.50;71.20
47779;DHT22;33538;48.432;11.350;2023-06-10T01:06:29;19.50;71.10
47779;DHT22;33538;48.432;11.350;2023-06-10T01:11:51;19.60;71.60
47779;DHT22;33538;48.432;11.350;2023-06-10T01:14:19;19.50;71.80
47779;DHT22;33538;48.432;11.350;2023-06-10T01:16:46;19.50;71.10
47779;DHT22;33538;48.432;11.350;2023-06-10T01:19:13;19.50;71.30
47779;DHT22;33538;48.432;11.350;2023-06-10T01:21:41;19.50;71.50
47779;DHT22;33538;48.432;11.350;2023-06-10T01:24:08;19.60;71.20
47779;DHT22;33538;48.432;11.350;2023-06-10T01:26:35;19.60;70.90
47779;DHT22;33538;48.432;11.350;2023-06-10T01:29:06;19.60;70.80
47779;DHT22;33538;48.432;11.350;2023-06-10T01:31:41;19.50;70.60
47779;DHT22;33538;48.432;11.350;2023-06-10T01:34:10;19.50;70.70
47779;DHT22;33538;48.432;11.350;2023-06-10T01:36:41;19.50;70.40
47779;DHT22;33538;48.432;11.350;2023-06-10T01:39:11;19.50;70.80
47779;DHT22;33538;48.432;11.350;2023-06-10T01:41:38;19.50;71.20
47779;DHT22;33538;48.432;11.350;2023-06-10T01:44:05;19.50;71.10
47779;DHT22;33538;48.432;11.350;2023-06-10T01:46:32;19.50;71.50
47779;DHT22;33538;48.432;11.350;2023-06-10T01:48:59;19.50;70.90
47779;DHT22;33538;48.432;11.350;2023-06-10T01:51:26;19.50;71.10
47779;DHT22;33538;48.432;11.350;2023-06-10T01:53:54;19.50;71.30
47779;DHT22;33538;48.432;11.350;2023-06-10T01:56:21;19.40;71.30
47779;DHT22;33538;48.432;11.350;2023-06-10T01:58:47;19.40;71.00
47779;DHT22;33538;48.432;11.350;2023-06-10T02:01:14;19.40;71.00
47779;DHT22;33538;48.432;11.350;2023-06-10T02:03:41;19.40;71.20
47779;DHT22;33538;48.432;11.350;2023-06-10T02:06:08;19.30;71.30
47779;DHT22;33538;48.432;11.350;2023-06-10T02:08:35;19.30;70.90
47779;DHT22;33538;48.432;11.350;2023-06-10T02:11:03;19.20;70.90
47779;DHT22;33538;48.432;11.350;2023-06-10T02:13:30;19.20;70.90
47779;DHT22;33538;48.432;11.350;2023-06-10T02:15:57;19.20;70.90
47779;DHT22;33538;48.432;11.350;2023-06-10T02:18:23;19.20;70.80
47779;DHT22;33538;48.432;11.350;2023-06-10T02:20:50;19.20;70.90
47779;DHT22;33538;48.432;11.350;2023-06-10T02:23:17;19.10;71.50
47779;DHT22;33538;48.432;11.350;2023-06-10T02:25:44;18.90;72.50
47779;DHT22;33538;48.432;11.350;2023-06-10T02:28:12;18.80;72.90
47779;DHT22;33538;48.432;11.350;2023-06-10T02:30:39;18.70;73.60
47779;DHT22;33538;48.432;11.350;2023-06-10T02:33:06;18.70;73.30
47779;DHT22;33538;48.432;11.350;2023-06-10T02:35:33;18.70;73.70
47779;DHT22;33538;48.432;11.350;2023-06-10T02:37:59;18.80;73.50
47779;DHT22;33538;48.432;11.350;2023-06-10T02:40:26;18.80;73.50
47779;DHT22;33538;48.432;11.350;2023-06-10T02:42:53;18.70;73.90
47779;DHT22;33538;48.432;11.350;2023-06-10T02:45:21;18.80;73.60
47779;DHT22;33538;48.432;11.350;2023-06-10T02:47:48;18.90;73.50
47779;DHT22;33538;48.432;11.350;2023-06-10T02:50:15;18.90;73.70
47779;DHT22;33538;48.432;11.350;2023-06-10T02:52:42;18.90;72.50
47779;DHT22;33538;48.432;11.350;2023-06-10T02:55:09;19.00;72.50
47779;DHT22;33538;48.432;11.350;2023-06-10T02:57:36;18.90;72.50
47779;DHT22;33538;48.432;11.350;2023-06-10T03:00:03;18.90;72.20
47779;DHT22;33538;48.432;11.350;2023-06-10T03:02:32;18.80;73.40
47779;DHT22;33538;48.432;11.350;2023-06-10T03:04:58;18.90;72.70
47779;DHT22;33538;48.432;11.350;2023-06-10T03:07:25;18.90;72.40
47779;DHT22;33538;48.432;11.350;2023-06-10T03:09:52;18.80;72.50
47779;DHT22;33538;48.432;11.350;2023-06-10T03:12:19;18.80;72.20
47779;DHT22;33538;48.432;11.350;2023-06-10T03:14:46;18.70;72.30
47779;DHT22;33538;48.432;11.350;2023-06-10T03:17:12;18.70;71.90
47779;DHT22;33538;48.432;11.350;2023-06-10T03:19:41;18.70;72.90
47779;DHT22;33538;48.432;11.350;2023-06-10T03:22:09;18.70;72.50
47779;DHT22;33538;48.432;11.350;2023-06-10T03:24:36;18.70;72.50
47779;DHT22;33538;48.432;11.350;2023-06-10T03:27:03;18.70;72.30
47779;DHT22;33538;48.432;11.350;2023-06-10T03:29:30;18.70;72.10
47779;DHT22;33538;48.432;11.350;2023-06-10T03:31:57;18.70;72.70
47779;DHT22;33538;48.432;11.350;2023-06-10T03:34:24;18.60;72.50
47779;DHT22;33538;48.432;11.350;2023-06-10T03:36:52;18.60;72.20
47779;DHT22;33538;48.432;11.350;2023-06-10T03:39:19;18.70;72.10
47779;DHT22;33538;48.432;11.350;2023-06-10T03:41:45;18.70;72.10
47779;DHT22;33538;48.432;11.350;2023-06-10T03:44:12;18.70;72.20
47779;DHT22;33538;48.432;11.350;2023-06-10T03:46:39;18.70;72.00
47779;DHT22;33538;48.432;11.350;2023-06-10T03:49:06;18.70;72.50
47779;DHT22;33538;48.432;11.350;2023-06-10T03:51:33;18.60;72.70
47779;DHT22;33538;48.432;11.350;2023-06-10T03:54:01;18.60;72.50
47779;DHT22;33538;48.432;11.350;2023-06-10T03:56:28;18.60;72.60
47779;DHT22;33538;48.432;11.350;2023-06-10T03:58:54;18.60;72.70
47779;DHT22;33538;48.432;11.350;2023-06-10T04:01:21;18.60;72.70
47779;DHT22;33538;48.432;11.350;2023-06-10T04:03:48;18.60;73.20
47779;DHT22;33538;48.432;11.350;2023-06-10T04:06:15;18.60;73.10
47779;DHT22;33538;48.432;11.350;2023-06-10T04:08:42;18.60;72.80
47779;DHT22;33538;48.432;11.350;2023-06-10T04:11:10;18.60;73.00
47779;DHT22;33538;48.432;11.350;2023-06-10T04:13:37;18.60;73.20
47779;DHT22;33538;48.432;11.350;2023-06-10T04:16:04;18.50;73.10
47779;DHT22;33538;48.432;11.350;2023-06-10T04:18:31;18.50;73.20
47779;DHT22;33538;48.432;11.350;2023-06-10T04:20:57;18.40;73.40
47779;DHT22;33538;48.432;11.350;2023-06-10T04:23:24;18.50;73.60
47779;DHT22;33538;48.432;11.350;2023-06-10T04:25:51;18.50;73.60
47779;DHT22;33538;48.432;11.350;2023-06-10T04:28:19;18.50;74.30
47779;DHT22;33538;48.432;11.350;2023-06-10T04:30:46;18.50;74.20
47779;DHT22;33538;48.432;11.350;2023-06-10T04:33:13;18.40;74.20
47779;DHT22;33538;48.432;11.350;2023-06-10T04:35:39;18.40;74.30
47779;DHT22;33538;48.432;11.350;2023-06-10T04:38:06;18.40;74.50
47779;DHT22;33538;48.432;11.350;2023-06-10T04:40:33;18.50;74.30
47779;DHT22;33538;48.432;11.350;2023-06-10T04:43:00;18.40;74.60
47779;DHT22;33538;48.432;11.350;2023-06-10T04:45:28;18.40;75.20
47779;DHT22;33538;48.432;11.350;2023-06-10T04:47:55;18.50;75.40
47779;DHT22;33538;48.432;11.350;2023-06-10T04:50:22;18.30;75.90
47779;DHT22;33538;48.432;11.350;2023-06-10T04:52:48;18.30;75.90
47779;DHT22;33538;48.432;11.350;2023-06-10T04:55:15;18.40;76.20
47779;DHT22;33538;48.432;11.350;2023-06-10T04:57:42;18.40;76.50
47779;DHT22;33538;48.432;11.350;2023-06-10T05:00:10;18.30;76.40
47779;DHT22;33538;48.432;11.350;2023-06-10T05:02:38;18.40;76.60
47779;DHT22;33538;48.432;11.350;2023-06-10T05:05:05;18.40;77.00
47779;DHT22;33538;48.432;11.350;2023-06-10T05:07:33;18.50;77.30
47779;DHT22;33538;48.432;11.350;2023-06-10T05:09:59;18.40;77.60
47779;DHT22;33538;48.432;11.350;2023-06-10T05:12:26;18.30;78.10
47779;DHT22;33538;48.432;11.350;2023-06-10T05:14:53;18.30;78.60
47779;DHT22;33538;48.432;11.350;2023-06-10T05:17:20;18.30;78.80
47779;DHT22;33538;48.432;11.350;2023-06-10T05:19:48;18.40;79.40
47779;DHT22;33538;48.432;11.350;2023-06-10T05:22:15;18.50;79.70
47779;DHT22;33538;48.432;11.350;2023-06-10T05:24:42;18.50;79.90
47779;DHT22;33538;48.432;11.350;2023-06-10T05:27:08;18.20;89.10
47779;DHT22;33538;48.432;11.350;2023-06-10T05:29:35;18.30;88.10
47779;DHT22;33538;48.432;11.350;2023-06-10T05:32:03;18.50;87.20
47779;DHT22;33538;48.432;11.350;2023-06-10T05:34:30;18.60;83.30
47779;DHT22;33538;48.432;11.350;2023-06-10T05:36:58;18.70;83.30
47779;DHT22;33538;48.432;11.350;2023-06-10T05:39:25;18.80;81.80
47779;DHT22;33538;48.432;11.350;2023-06-10T05:41:52;18.90;81.70
47779;DHT22;33538;48.432;11.350;2023-06-10T05:44:19;18.90;79.30
47779;DHT22;33538;48.432;11.350;2023-06-10T05:46:46;19.00;78.30
47779;DHT22;33538;48.432;11.350;2023-06-10T05:49:12;19.00;77.00
47779;DHT22;33538;48.432;11.350;2023-06-10T05:51:39;19.00;76.70
47779;DHT22;33538;48.432;11.350;2023-06-10T05:54:07;19.10;76.60
47779;DHT22;33538;48.432;11.350;2023-06-10T05:56:34;19.10;75.90
47779;DHT22;33538;48.432;11.350;2023-06-10T05:59:01;19.20;75.60
47779;DHT22;33538;48.432;11.350;2023-06-10T06:01:28;19.20;75.10
47779;DHT22;33538;48.432;11.350;2023-06-10T06:03:55;19.20;75.20
47779;DHT22;33538;48.432;11.350;2023-06-10T06:06:22;19.20;75.10
47779;DHT22;33538;48.432;11.350;2023-06-10T06:08:48;19.30;74.80
47779;DHT22;33538;48.432;11.350;2023-06-10T06:11:17;19.30;74.70
47779;DHT22;33538;48.432;11.350;2023-06-10T06:13:43;19.30;75.20
47779;DHT22;33538;48.432;11.350;2023-06-10T06:16:10;19.30;74.50
47779;DHT22;33538;48.432;11.350;2023-06-10T06:18:37;19.30;74.50
47779;DHT22;33538;48.432;11.350;2023-06-10T06:21:04;19.30;74.60
47779;DHT22;33538;48.432;11.350;2023-06-10T06:23:31;19.30;75.00
47779;DHT22;33538;48.432;11.350;2023-06-10T06:25:58;19.40;75.60
47779;DHT22;33538;48.432;11.350;2023-06-10T06:28:26;19.40;76.20
47779;DHT22;33538;48.432;11.350;2023-06-10T06:30:52;19.40;75.30
47779;DHT22;33538;48.432;11.350;2023-06-10T06:33:19;19.40;74.90
47779;DHT22;33538;48.432;11.350;2023-06-10T06:35:46;19.40;76.90
47779;DHT22;33538;48.432;11.350;2023-06-10T06:38:13;19.40;76.00
47779;DHT22;33538;48.432;11.350;2023-06-10T06:40:40;19.50;75.40
47779;DHT22;33538;48.432;11.350;2023-06-10T06:43:07;19.50;75.40
47779;DHT22;33538;48.432;11.350;2023-06-10T06:45:35;19.50;74.90
47779;DHT22;33538;48.432;11.350;2023-06-10T06:48:02;19.50;75.90
47779;DHT22;33538;48.432;11.350;2023-06-10T06:50:29;19.60;75.70
47779;DHT22;33538;48.432;11.350;2023-06-10T06:52:55;19.60;74.80
47779;DHT22;33538;48.432;11.350;2023-06-10T06:55:22;19.60;74.50
47779;DHT22;33538;48.432;11.350;2023-06-10T06:57:49;19.60;74.30
47779;DHT22;33538;48.432;11.350;2023-06-10T07:00:17;19.60;74.10
47779;DHT22;33538;48.432;11.350;2023-06-10T07:02:45;19.70;74.10
47779;DHT22;33538;48.432;11.350;2023-06-10T07:05:12;19.70;74.40
47779;DHT22;33538;48.432;11.350;2023-06-10T07:07:39;19.70;74.00
47779;DHT22;33538;48.432;11.350;2023-06-10T07:10:07;19.80;74.20
47779;DHT22;33538;48.432;11.350;2023-06-10T07:12:34;19.80;74.00
47779;DHT22;33538;48.432;11.350;2023-06-10T07:15:00;19.80;73.90
47779;DHT22;33538;48.432;11.350;2023-06-10T07:17:27;19.80;73.70
47779;DHT22;33538;48.432;11.350;2023-06-10T07:19:55;19.90;73.80
47779;DHT22;33538;48.432;11.350;2023-06-10T07:22:22;19.90;73.70
47779;DHT22;33538;48.432;11.350;2023-06-10T07:24:49;19.90;73.60
47779;DHT22;33538;48.432;11.350;2023-06-10T07:27:16;19.90;73.50
47779;DHT22;33538;48.432;11.350;2023-06-10T07:29:42;20.00;73.50
47779;DHT22;33538;48.432;11.350;2023-06-10T07:32:09;20.00;73.30
47779;DHT22;33538;48.432;11.350;2023-06-10T07:34:36;20.00;73.30
47779;DHT22;33538;48.432;11.350;2023-06-10T07:37:05;20.10;73.70
47779;DHT22;33538;48.432;11.350;2023-06-10T07:39:32;20.10;73.50
47779;DHT22;33538;48.432;11.350;2023-06-10T07:41:59;20.10;73.30
47779;DHT22;33538;48.432;11.350;2023-06-10T07:44:25;20.10;73.30
47779;DHT22;33538;48.432;11.350;2023-06-10T07:46:52;20.20;73.30
47779;DHT22;33538;48.432;11.350;2023-06-10T07:49:19;20.20;73.30
47779;DHT22;33538;48.432;11.350;2023-06-10T07:51:46;20.20;73.20
47779;DHT22;33538;48.432;11.350;2023-06-10T07:54:14;20.30;73.40
47779;DHT22;33538;48.432;11.350;2023-06-10T07:56:43;20.30;73.30
47779;DHT22;33538;48.432;11.350;2023-06-10T07:59:10;20.30;73.50
47779;DHT22;33538;48.432;11.350;2023-06-10T08:01:37;20.40;73.40
47779;DHT22;33538;48.432;11.350;2023-06-10T08:04:04;20.40;73.40
47779;DHT22;33538;48.432;11.350;2023-06-10T08:06:31;20.40;73.50
47779;DHT22;33538;48.432;11.350;2023-06-10T08:08:58;20.40;73.50
47779;DHT22;33538;48.432;11.350;2023-06-10T08:11:26;20.50;73.50
47779;DHT22;33538;48.432;11.350;2023-06-10T08:13:53;20.40;73.60
47779;DHT22;33538;48.432;11.350;2023-06-10T08:16:19;20.50;73.50
47779;DHT22;33538;48.432;11.350;2023-06-10T08:18:46;20.60;73.80
47779;DHT22;33538;48.432;11.350;2023-06-10T08:21:13;20.60;73.70
47779;DHT22;33538;48.432;11.350;2023-06-10T08:23:40;20.60;73.70
47779;DHT22;33538;48.432;11.350;2023-06-10T08:26:07;20.60;73.90
47779;DHT22;33538;48.432;11.350;2023-06-10T08:28:35;20.70;74.90
47779;DHT22;33538;48.432;11.350;2023-06-10T08:31:02;20.70;74.00
47779;DHT22;33538;48.432;11.350;2023-06-10T08:33:29;20.70;74.10
47779;DHT22;33538;48.432;11.350;2023-06-10T08:35:55;20.80;74.20
47779;DHT22;33538;48.432;11.350;2023-06-10T08:38:22;20.80;74.20
47779;DHT22;33538;48.432;11.350;2023-06-10T08:40:50;20.80;74.20
47779;DHT22;33538;48.432;11.350;2023-06-10T08:43:24;20.80;74.20
47779;DHT22;33538;48.432;11.350;2023-06-10T08:45:57;20.80;74.30
47779;DHT22;33538;48.432;11.350;2023-06-10T08:48:27;20.80;74.30
47779;DHT22;33538;48.432;11.350;2023-06-10T08:50:56;20.90;74.50
47779;DHT22;33538;48.432;11.350;2023-06-10T08:53:24;20.90;74.50
47779;DHT22;33538;48.432;11.350;2023-06-10T08:55:53;20.90;74.60
47779;DHT22;33538;48.432;11.350;2023-06-10T08:58:23;20.90;74.70
47779;DHT22;33538;48.432;11.350;2023-06-10T09:00:51;20.90;74.80
47779;DHT22;33538;48.432;11.350;2023-06-10T09:03:19;20.90;75.00
47779;DHT22;33538;48.432;11.350;2023-06-10T09:05:48;20.90;75.20
47779;DHT22;33538;48.432;11.350;2023-06-10T09:08:15;20.90;75.20
47779;DHT22;33538;48.432;11.350;2023-06-10T09:10:42;20.90;75.20
47779;DHT22;33538;48.432;11.350;2023-06-10T09:13:09;20.90;75.20
47779;DHT22;33538;48.432;11.350;2023-06-10T09:15:36;20.90;75.50
47779;DHT22;33538;48.432;11.350;2023-06-10T09:18:03;21.00;75.50
47779;DHT22;33538;48.432;11.350;2023-06-10T09:20:31;21.00;75.50
47779;DHT22;33538;48.432;11.350;2023-06-10T09:22:59;21.00;75.60
47779;DHT22;33538;48.432;11.350;2023-06-10T09:25:35;21.00;75.70
47779;DHT22;33538;48.432;11.350;2023-06-10T09:28:02;21.00;75.70
47779;DHT22;33538;48.432;11.350;2023-06-10T09:30:30;21.00;75.70
47779;DHT22;33538;48.432;11.350;2023-06-10T09:32:58;21.00;75.80
47779;DHT22;33538;48.432;11.350;2023-06-10T09:35:26;21.10;75.80
47779;DHT22;33538;48.432;11.350;2023-06-10T09:37:56;21.10;75.80
47779;DHT22;33538;48.432;11.350;2023-06-10T09:40:23;21.10;75.90
47779;DHT22;33538;48.432;11.350;2023-06-10T09:42:53;21.10;75.90
47779;DHT22;33538;48.432;11.350;2023-06-10T09:45:20;21.10;75.90
47779;DHT22;33538;48.432;11.350;2023-06-10T09:47:51;21.10;76.10
47779;DHT22;33538;48.432;11.350;2023-06-10T09:50:17;21.20;76.10
47779;DHT22;33538;48.432;11.350;2023-06-10T09:52:46;21.10;76.10
47779;DHT22;33538;48.432;11.350;2023-06-10T09:55:14;21.20;76.30
47779;DHT22;33538;48.432;11.350;2023-06-10T09:57:41;21.20;76.40
47779;DHT22;33538;48.432;11.350;2023-06-10T10:00:10;21.20;76.40
47779;DHT22;33538;48.432;11.350;2023-06-10T10:02:45;21.20;76.50
47779;DHT22;33538;48.432;11.350;2023-06-10T10:05:12;21.20;76.40
47779;DHT22;33538;48.432;11.350;2023-06-10T10:07:40;21.20;76.40
47779;DHT22;33538;48.432;11.350;2023-06-10T10:10:10;21.30;76.50
47779;DHT22;33538;48.432;11.350;2023-06-10T10:12:40;21.20;76.50
47779;DHT22;33538;48.432;11.350;2023-06-10T10:15:08;21.30;76.60
47779;DHT22;33538;48.432;11.350;2023-06-10T10:17:39;21.30;76.70
47779;DHT22;33538;48.432;11.350;2023-06-10T10:20:08;21.30;76.70
47779;DHT22;33538;48.432;11.350;2023-06-10T10:22:40;21.30;76.80
47779;DHT22;33538;48.432;11.350;2023-06-10T10:25:10;21.30;76.90
47779;DHT22;33538;48.432;11.350;2023-06-10T10:27:44;21.30;77.10
47779;DHT22;33538;48.432;11.350;2023-06-10T10:30:11;21.40;76.90
47779;DHT22;33538;48.432;11.350;2023-06-10T10:32:50;21.40;76.90
47779;DHT22;33538;48.432;11.350;2023-06-10T10:35:21;21.40;76.80
47779;DHT22;33538;48.432;11.350;2023-06-10T10:37:48;21.40;76.80
47779;DHT22;33538;48.432;11.350;2023-06-10T10:40:16;21.40;76.90
47779;DHT22;33538;48.432;11.350;2023-06-10T10:42:45;21.50;77.00
47779;DHT22;33538;48.432;11.350;2023-06-10T10:45:12;21.50;77.00
47779;DHT22;33538;48.432;11.350;2023-06-10T10:47:39;21.50;77.00
47779;DHT22;33538;48.432;11.350;2023-06-10T10:50:14;21.50;77.10
47779;DHT22;33538;48.432;11.350;2023-06-10T10:52:51;21.50;77.20
47779;DHT22;33538;48.432;11.350;2023-06-10T10:55:18;21.50;77.10
47779;DHT22;33538;48.432;11.350;2023-06-10T10:57:53;21.50;78.10
47779;DHT22;33538;48.432;11.350;2023-06-10T11:00:28;21.60;77.30
47779;DHT22;33538;48.432;11.350;2023-06-10T11:02:57;21.60;77.30
47779;DHT22;33538;48.432;11.350;2023-06-10T11:05:36;21.60;77.30
47779;DHT22;33538;48.432;11.350;2023-06-10T11:08:03;21.60;77.40
47779;DHT22;33538;48.432;11.350;2023-06-10T11:10:31;21.60;77.40
47779;DHT22;33538;48.432;11.350;2023-06-10T11:12:59;21.50;77.30
47779;DHT22;33538;48.432;11.350;2023-06-10T11:15:28;21.60;77.10
47779;DHT22;33538;48.432;11.350;2023-06-10T11:18:09;21.70;76.40
47779;DHT22;33538;48.432;11.350;2023-06-10T11:20:54;21.60;76.50
47779;DHT22;33538;48.432;11.350;2023-06-10T11:23:33;21.60;76.60
47779;DHT22;33538;48.432;11.350;2023-06-10T11:26:13;21.50;76.60
47779;DHT22;33538;48.432;11.350;2023-06-10T11:29:00;21.60;76.30
47779;DHT22;33538;48.432;11.350;2023-06-10T11:31:29;21.60;76.40
47779;DHT22;33538;48.432;11.350;2023-06-10T11:33:57;21.60;76.20
47779;DHT22;33538;48.432;11.350;2023-06-10T11:36:25;21.70;75.90
47779;DHT22;33538;48.432;11.350;2023-06-10T11:38:55;21.60;76.00
47779;DHT22;33538;48.432;11.350;2023-06-10T11:41:23;21.60;75.70
47779;DHT22;33538;48.432;11.350;2023-06-10T11:43:52;21.50;76.00
47779;DHT22;33538;48.432;11.350;2023-06-10T11:46:19;21.60;75.80
47779;DHT22;33538;48.432;11.350;2023-06-10T11:48:49;21.60;75.90
47779;DHT22;33538;48.432;11.350;2023-06-10T11:51:16;21.60;75.10
47779;DHT22;33538;48.432;11.350;2023-06-10T11:53:44;21.60;74.80
47779;DHT22;33538;48.432;11.350;2023-06-10T11:56:10;21.60;75.00
47779;DHT22;33538;48.432;11.350;2023-06-10T11:58:41;21.60;75.80
47779;DHT22;33538;48.432;11.350;2023-06-10T12:01:10;21.60;75.10
47779;DHT22;33538;48.432;11.350;2023-06-10T12:03:38;21.60;75.10
47779;DHT22;33538;48.432;11.350;2023-06-10T12:06:06;21.50;75.00
47779;DHT22;33538;48.432;11.350;2023-06-10T12:08:34;21.60;75.00
47779;DHT22;33538;48.432;11.350;2023-06-10T12:11:07;21.60;75.00
47779;DHT22;33538;48.432;11.350;2023-06-10T12:13:34;21.60;75.10
47779;DHT22;33538;48.432;11.350;2023-06-10T12:16:07;21.60;75.10
47779;DHT22;33538;48.432;11.350;2023-06-10T12:18:36;21.60;75.20
47779;DHT22;33538;48.432;11.350;2023-06-10T12:21:03;21.60;75.20
47779;DHT22;33538;48.432;11.350;2023-06-10T12:23:47;21.60;75.10
47779;DHT22;33538;48.432;11.350;2023-06-10T12:26:37;21.60;74.60
47779;DHT22;33538;48.432;11.350;2023-06-10T12:29:18;21.60;74.40
47779;DHT22;33538;48.432;11.350;2023-06-10T12:31:59;21.70;74.40
47779;DHT22;33538;48.432;11.350;2023-06-10T12:34:35;21.70;73.40
47779;DHT22;33538;48.432;11.350;2023-06-10T12:37:04;21.70;73.40
47779;DHT22;33538;48.432;11.350;2023-06-10T12:39:31;21.70;73.60
47779;DHT22;33538;48.432;11.350;2023-06-10T12:41:58;21.70;73.70
47779;DHT22;33538;48.432;11.350;2023-06-10T12:44:29;21.60;73.90
47779;DHT22;33538;48.432;11.350;2023-06-10T12:46:56;21.70;73.50
47779;DHT22;33538;48.432;11.350;2023-06-10T12:49:23;21.70;73.70
47779;DHT22;33538;48.432;11.350;2023-06-10T12:51:51;21.70;73.90
47779;DHT22;33538;48.432;11.350;2023-06-10T12:54:18;21.60;74.00
47779;DHT22;33538;48.432;11.350;2023-06-10T12:56:45;21.70;74.10
47779;DHT22;33538;48.432;11.350;2023-06-10T12:59:11;21.70;74.20
47779;DHT22;33538;48.432;11.350;2023-06-10T13:01:38;21.70;74.20
47779;DHT22;33538;48.432;11.350;2023-06-10T13:04:05;21.70;74.30
47779;DHT22;33538;48.432;11.350;2023-06-10T13:06:32;21.80;74.30
47779;DHT22;33538;48.432;11.350;2023-06-10T13:09:02;21.80;74.30
47779;DHT22;33538;48.432;11.350;2023-06-10T13:11:29;21.80;74.20
47779;DHT22;33538;48.432;11.350;2023-06-10T13:13:55;21.80;74.00
47779;DHT22;33538;48.432;11.350;2023-06-10T13:16:22;21.90;73.80
47779;DHT22;33538;48.432;11.350;2023-06-10T13:18:49;21.90;73.90
47779;DHT22;33538;48.432;11.350;2023-06-10T13:21:16;21.90;73.80
47779;DHT22;33538;48.432;11.350;2023-06-10T13:23:44;22.00;73.70
47779;DHT22;33538;48.432;11.350;2023-06-10T13:26:12;22.00;73.60
47779;DHT22;33538;48.432;11.350;2023-06-10T13:28:39;22.00;73.80
47779;DHT22;33538;48.432;11.350;2023-06-10T13:31:06;22.00;73.60
47779;DHT22;33538;48.432;11.350;2023-06-10T13:33:32;22.00;73.50
47779;DHT22;33538;48.432;11.350;2023-06-10T13:35:59;22.10;73.10
47779;DHT22;33538;48.432;11.350;2023-06-10T13:38:26;22.00;73.40
47779;DHT22;33538;48.432;11.350;2023-06-10T13:40:53;22.00;73.40
47779;DHT22;33538;48.432;11.350;2023-06-10T13:43:21;22.10;73.40
47779;DHT22;33538;48.432;11.350;2023-06-10T13:45:48;22.10;73.50
47779;DHT22;33538;48.432;11.350;2023-06-10T13:48:14;22.10;73.50
47779;DHT22;33538;48.432;11.350;2023-06-10T13:50:41;22.10;73.60
47779;DHT22;33538;48.432;11.350;2023-06-10T13:53:08;22.10;73.70
47779;DHT22;33538;48.432;11.350;2023-06-10T13:55:35;22.10;73.20
47779;DHT22;33538;48.432;11.350;2023-06-10T13:58:02;22.10;73.30
47779;DHT22;33538;48.432;11.350;2023-06-10T14:00:30;22.20;73.00
47779;DHT22;33538;48.432;11.350;2023-06-10T14:02:57;22.40;71.40
47779;DHT22;33538;48.432;11.350;2023-06-10T14:05:24;22.30;71.90
47779;DHT22;33538;48.432;11.350;2023-06-10T14:07:51;22.30;72.10
47779;DHT22;33538;48.432;11.350;2023-06-10T14:10:19;22.30;71.80
47779;DHT22;33538;48.432;11.350;2023-06-10T14:12:47;22.40;71.10
47779;DHT22;33538;48.432;11.350;2023-06-10T14:15:14;22.40;71.00
47779;DHT22;33538;48.432;11.350;2023-06-10T14:17:44;22.50;70.10
47779;DHT22;33538;48.432;11.350;2023-06-10T14:20:12;22.40;70.70
47779;DHT22;33538;48.432;11.350;2023-06-10T14:22:41;22.40;71.10
47779;DHT22;33538;48.432;11.350;2023-06-10T14:25:08;22.40;70.70
47779;DHT22;33538;48.432;11.350;2023-06-10T14:27:36;22.40;71.00
47779;DHT22;33538;48.432;11.350;2023-06-10T14:30:05;22.40;70.90
47779;DHT22;33538;48.432;11.350;2023-06-10T14:32:34;22.40;71.00
47779;DHT22;33538;48.432;11.350;2023-06-10T14:35:04;22.40;71.20
47779;DHT22;33538;48.432;11.350;2023-06-10T14:37:31;22.40;71.20
47779;DHT22;33538;48.432;11.350;2023-06-10T14:39:58;22.40;71.10
47779;DHT22;33538;48.432;11.350;2023-06-10T14:42:26;22.50;71.00
47779;DHT22;33538;48.432;11.350;2023-06-10T14:44:53;22.50;71.10
47779;DHT22;33538;48.432;11.350;2023-06-10T14:47:21;22.50;70.80
47779;DHT22;33538;48.432;11.350;2023-06-10T14:49:50;22.50;70.80
47779;DHT22;33538;48.432;11.350;2023-06-10T14:52:18;22.60;69.60
47779;DHT22;33538;48.432;11.350;2023-06-10T14:54:45;22.60;70.00
47779;DHT22;33538;48.432;11.350;2023-06-10T14:57:12;22.60;69.20
47779;DHT22;33538;48.432;11.350;2023-06-10T14:59:40;22.60;69.50
47779;DHT22;33538;48.432;11.350;2023-06-10T15:02:07;22.60;69.40
47779;DHT22;33538;48.432;11.350;2023-06-10T15:04:35;22.60;69.30
47779;DHT22;33538;48.432;11.350;2023-06-10T15:07:02;22.60;69.30
47779;DHT22;33538;48.432;11.350;2023-06-10T15:09:32;22.70;69.40
47779;DHT22;33538;48.432;11.350;2023-06-10T15:11:59;22.70;69.50
47779;DHT22;33538;48.432;11.350;2023-06-10T15:14:27;22.70;69.40
47779;DHT22;33538;48.432;11.350;2023-06-10T15:16:54;22.70;69.60
47779;DHT22;33538;48.432;11.350;2023-06-10T15:19:21;22.70;69.30
47779;DHT22;33538;48.432;11.350;2023-06-10T15:21:47;22.70;69.20
47779;DHT22;33538;48.432;11.350;2023-06-10T15:24:14;22.80;69.30
47779;DHT22;33538;48.432;11.350;2023-06-10T15:26:43;22.80;69.30